• Join FlightAware (Why Join?)
  • Login
  • US Flag 
04:40PM EST


 

Airport Tracker/Info


-or-


 

Live Flight TrackerFlight Track Log ✈ MTN7303 ✈ 22-Aug-2013 ✈ KBWI - KEWR

Flight Track Log - Related Links

Times and Time Zones

All times are in EDT time to prevent confusion due to time zone crossing. See the MTN7303 flight status page for this flight to view local times or setup timezone preferences in your user account.

Time Position Orientation Groundspeed Altitude Reporting Facility
EDT Latitude Longitude Course Direction KTS MPH feet Rate Location/Type
11:17PM 39.2000 -76.6833 30° Northeast 87 100 1,200  Level Potomac TRACON
11:18PM 39.2333 -76.7000 339° North 94 108 2,100 780 Climbing Potomac TRACON
11:19PM 39.2500 -76.6833 38° Northeast 122 140 2,800 780 Climbing Potomac TRACON
11:20PM 39.2667 -76.6500 57° Northeast 122 140 3,700 780 Climbing Potomac TRACON
11:22PM 39.3000 -76.6167 38° Northeast 121 139 4,600 540 Climbing Potomac TRACON
11:23PM 39.4682 -76.3906 30° Northeast  Level FlightAware Approximate
11:23PM 39.3167 -76.5833 57° Northeast 139 160 5,000  Level Potomac TRACON
11:23PM 39.3500 -76.5333 49° Northeast 160 184 5,000  Level Potomac TRACON
11:25PM 39.3833 -76.5000 38° Northeast 161 185 5,000  Level Potomac TRACON
11:26PM 39.4167 -76.4500 49° Northeast 162 186 5,000  Level Potomac TRACON
11:27PM 39.4333 -76.4167 57° Northeast 158 182 5,000  Level Potomac TRACON
11:27PM 39.4667 -76.3667 49° Northeast 158 182 5,000  Level Potomac TRACON
11:28PM 39.5000 -76.3333 38° Northeast 158 182 5,000  Level Potomac TRACON
11:29PM 39.5167 -76.2833 67° East 158 182 5,000  Level Potomac TRACON
11:31PM 39.5667 -76.2167 46° Northeast 159 183 5,000  Level Philadelphia TRACON
11:32PM 39.5833 -76.1833 57° Northeast 159 183 5,000  Level Philadelphia TRACON
11:33PM 39.6167 -76.1500 38° Northeast 157 181 5,000  Level Philadelphia TRACON
11:34PM 39.6333 -76.1000 67° East 158 182 5,000  Level Philadelphia TRACON
11:35PM 39.6833 -76.0500 38° Northeast 160 184 5,000  Level Philadelphia TRACON
11:36PM 39.7000 -76.0000 67° East 157 181 5,000  Level Philadelphia TRACON
11:37PM 39.7333 -75.9667 38° Northeast 157 181 5,000  Level Philadelphia TRACON
11:38PM 39.7500 -75.9333 57° Northeast 158 182 5,000  Level Philadelphia TRACON
11:38PM 39.7833 -75.8833 49° Northeast 161 185 5,000  Level Philadelphia TRACON
11:39PM 39.8000 -75.8500 57° Northeast 161 185 5,000  Level Philadelphia TRACON
11:40PM 39.8333 -75.8000 49° Northeast 165 190 5,000  Level Philadelphia TRACON
11:42PM 39.8667 -75.7500 49° Northeast 166 191 5,000  Level Philadelphia TRACON
11:43PM 39.9000 -75.7000 49° Northeast 167 192 5,000  Level Philadelphia TRACON
11:44PM 39.9333 -75.6500 49° Northeast 165 190 5,000  Level Philadelphia TRACON
11:45PM 39.9500 -75.6000 66° East 164 189 5,000  Level Philadelphia TRACON
11:46PM 39.9833 -75.5500 49° Northeast 165 190 5,000  Level Philadelphia TRACON
11:47PM 40.0000 -75.5000 66° East 165 190 5,000  Level Philadelphia TRACON
11:48PM 40.0167 -75.4333 72° East 164 189 5,000  Level Philadelphia TRACON
11:49PM 40.0500 -75.3833 49° Northeast 165 190 5,000  Level Philadelphia TRACON
11:50PM 40.0667 -75.3333 66° East 162 186 5,000  Level Philadelphia TRACON
11:51PM 40.0833 -75.2833 66° East 163 188 5,000  Level Philadelphia TRACON
11:52PM 40.1167 -75.2333 49° Northeast 163 188 5,000  Level Philadelphia TRACON
11:53PM 40.1333 -75.2000 57° Northeast 167 192 5,000  Level Philadelphia TRACON
11:54PM 40.1500 -75.1333 72° East 168 193 5,000  Level Philadelphia TRACON
11:55PM 40.1833 -75.0833 49° Northeast 171 197 5,000  Level Philadelphia TRACON
11:56PM 40.2000 -75.0333 66° East 167 192 5,000  Level Philadelphia TRACON
11:56PM 40.2167 -75.0000 57° Northeast 167 192 5,000  Level New York TRACON
11:57PM 40.2333 -74.9500 66° East 164 189 5,000  Level New York TRACON
11:58PM 40.2500 -74.9000 66° East 162 186 5,000  Level New York TRACON
11:59PM 40.2833 -74.8667 37° Northeast 158 182 5,000  Level New York TRACON
12:00AM 40.3167 -74.8167 49° Northeast 157 181 5,000  Level New York TRACON
12:01AM 40.3500 -74.7833 37° Northeast 157 181 5,000  Level New York TRACON
12:02AM 40.3833 -74.7333 49° Northeast 157 181 5,000 -180 Level New York TRACON
12:03AM 40.4000 -74.7000 57° Northeast 166 191 4,700 -360 Descending New York TRACON
12:04AM 40.4333 -74.6500 49° Northeast 169 194 4,400 -360 Descending New York TRACON
12:05AM 40.4667 -74.6000 49° Northeast 168 193 4,100 -240 Descending New York TRACON
12:06AM 40.5000 -74.5500 49° Northeast 160 184 4,000 -360 Descending New York TRACON
12:08AM 40.5500 -74.4500 57° Northeast 176 203 3,100 -360 Descending New York TRACON
12:09AM 40.5833 -74.4167 37° Northeast 162 186 3,000 -60 Descending New York TRACON
12:10AM 40.6167 -74.3667 49° Northeast 158 182 3,000 -420 Level New York TRACON
12:12AM 40.6438 -74.2961 57° Northeast  Level Estimated
12:13AM 40.6833 -74.2333 57° Northeast 172 198 1,400  Level New York TRACON
12:15AM 40.6833 -74.1667 52° Northeast  Level FlightAware Approximate
12:22AM 40.6925 -74.1687 52° Northeast  Level Estimated
12:23AM 40.6925 -74.1687 52° Northeast  Level Estimated